createdAt,value
2024-03-27T00:00:06.030Z,48
2024-03-27T00:03:00.763Z,47
2024-03-27T00:06:00.780Z,47
2024-03-27T00:09:01.244Z,47
2024-03-27T00:12:01.360Z,48
2024-03-27T00:15:01.970Z,47
2024-03-27T00:18:00.802Z,47
2024-03-27T00:21:00.688Z,47
2024-03-27T00:24:00.673Z,48
2024-03-27T00:27:00.715Z,47
2024-03-27T00:30:00.764Z,47
2024-03-27T00:33:01.730Z,47
2024-03-27T00:36:00.719Z,48
2024-03-27T00:39:00.772Z,47
2024-03-27T00:42:00.748Z,47
2024-03-27T00:45:00.814Z,47
2024-03-27T00:48:00.704Z,48
2024-03-27T00:51:00.843Z,47
2024-03-27T00:54:00.677Z,47
2024-03-27T00:57:00.730Z,47
2024-03-27T01:00:00.768Z,48
2024-03-27T01:03:00.698Z,48
2024-03-27T01:06:02.910Z,47
2024-03-27T01:09:00.686Z,47
2024-03-27T01:12:00.714Z,48
2024-03-27T01:15:01.088Z,48
2024-03-27T01:18:01.263Z,47
2024-03-27T01:21:00.721Z,47
2024-03-27T01:24:00.730Z,48
2024-03-27T01:27:00.682Z,48
2024-03-27T01:30:00.983Z,48
2024-03-27T01:33:00.661Z,47
2024-03-27T01:36:00.786Z,48
2024-03-27T01:39:00.679Z,47
2024-03-27T01:42:00.723Z,47
2024-03-27T01:45:01.311Z,47
2024-03-27T01:48:00.772Z,48
2024-03-27T01:51:00.912Z,47
2024-03-27T01:54:01.435Z,47
2024-03-27T01:57:02.330Z,47
2024-03-27T02:00:00.957Z,48
2024-03-27T02:03:00.927Z,48
2024-03-27T02:06:02.244Z,47
2024-03-27T02:09:00.693Z,47
2024-03-27T02:12:00.689Z,48
2024-03-27T02:15:03.679Z,48
2024-03-27T02:18:00.706Z,48
2024-03-27T02:21:01.444Z,47
2024-03-27T02:27:00.689Z,48
2024-03-27T02:30:00.749Z,47
2024-03-27T02:33:00.714Z,47
2024-03-27T02:36:00.759Z,48
2024-03-27T02:39:00.911Z,48
2024-03-27T02:42:00.692Z,47
2024-03-27T02:45:01.105Z,47
2024-03-27T02:48:00.706Z,48
2024-03-27T02:51:00.708Z,48
2024-03-27T02:54:00.661Z,48
2024-03-27T02:57:00.680Z,48
2024-03-27T03:00:00.667Z,48
2024-03-27T03:03:00.924Z,48
2024-03-27T03:06:00.679Z,48
2024-03-27T03:09:00.694Z,48
2024-03-27T03:12:00.797Z,48
2024-03-27T03:15:00.867Z,48
2024-03-27T03:18:00.639Z,48
2024-03-27T03:21:01.767Z,48
2024-03-27T03:24:00.703Z,48
2024-03-27T03:27:00.670Z,48
2024-03-27T03:30:03.064Z,48
2024-03-27T03:33:00.686Z,48
2024-03-27T03:36:00.846Z,48
2024-03-27T03:39:00.976Z,48
2024-03-27T03:42:00.658Z,48
2024-03-27T03:45:01.363Z,48
2024-03-27T03:48:00.651Z,48
2024-03-27T03:51:00.691Z,48
2024-03-27T03:54:04.565Z,48
2024-03-27T03:57:00.666Z,48
2024-03-27T04:00:00.683Z,49
2024-03-27T04:03:00.697Z,48
2024-03-27T04:06:00.845Z,48
2024-03-27T04:09:01.981Z,48
2024-03-27T04:12:00.711Z,49
2024-03-27T04:15:00.713Z,48
2024-03-27T04:18:00.707Z,48
2024-03-27T04:21:04.237Z,48
2024-03-27T04:24:00.702Z,49
2024-03-27T04:27:00.654Z,48
2024-03-27T04:30:01.035Z,48
2024-03-27T04:33:00.678Z,48
2024-03-27T04:36:00.953Z,49
2024-03-27T04:39:00.660Z,49
2024-03-27T04:42:02.237Z,48
2024-03-27T04:45:00.655Z,48
2024-03-27T04:48:00.705Z,49
2024-03-27T04:51:00.834Z,49
2024-03-27T04:54:00.681Z,49
2024-03-27T04:57:00.717Z,49
2024-03-27T05:00:01.040Z,49
2024-03-27T05:03:01.558Z,49
2024-03-27T05:06:00.664Z,49
2024-03-27T05:09:00.806Z,49
2024-03-27T05:12:01.946Z,49
2024-03-27T05:15:00.683Z,49
2024-03-27T05:18:01.482Z,49
2024-03-27T05:21:00.704Z,49
2024-03-27T05:24:01.711Z,49
2024-03-27T05:27:00.694Z,49
2024-03-27T05:30:00.698Z,49
2024-03-27T05:33:00.829Z,49
2024-03-27T05:36:13.962Z,49
2024-03-27T05:39:02.152Z,49
2024-03-27T05:42:00.682Z,49
2024-03-27T05:45:00.814Z,49
2024-03-27T05:48:03.037Z,50
2024-03-27T05:51:01.109Z,49
2024-03-27T05:54:01.053Z,49
2024-03-27T05:57:00.735Z,49
2024-03-27T06:00:00.838Z,50
2024-03-27T06:03:00.683Z,50
2024-03-27T06:06:00.780Z,50
2024-03-27T06:09:00.670Z,50
2024-03-27T06:12:00.713Z,50
2024-03-27T06:15:00.717Z,50
2024-03-27T06:18:00.668Z,50
2024-03-27T06:21:00.762Z,50
2024-03-27T06:24:00.658Z,50
2024-03-27T06:27:00.703Z,50
2024-03-27T06:30:01.077Z,50
2024-03-27T06:33:00.740Z,50
2024-03-27T06:36:01.654Z,50
2024-03-27T06:39:01.048Z,50
2024-03-27T06:42:00.706Z,50
2024-03-27T06:45:06.930Z,49
2024-03-27T06:48:00.731Z,50
2024-03-27T06:51:00.689Z,50
2024-03-27T06:54:00.837Z,50
2024-03-27T06:57:00.667Z,50
2024-03-27T07:00:00.868Z,51
2024-03-27T07:03:00.711Z,50
2024-03-27T07:06:00.654Z,50
2024-03-27T07:09:00.662Z,50
2024-03-27T07:12:00.754Z,51
2024-03-27T07:15:00.966Z,51
2024-03-27T07:18:01.024Z,50
2024-03-27T07:21:01.653Z,50
2024-03-27T07:24:00.752Z,51
2024-03-27T07:27:01.671Z,51
2024-03-27T07:30:01.109Z,50
2024-03-27T07:33:00.749Z,50
2024-03-27T07:36:00.745Z,51
2024-03-27T07:39:00.884Z,50
2024-03-27T07:42:00.988Z,50
2024-03-27T07:45:04.363Z,50
2024-03-27T07:48:00.727Z,50
2024-03-27T07:51:01.251Z,50
2024-03-27T07:54:01.032Z,50
2024-03-27T07:57:05.505Z,50
2024-03-27T08:00:00.961Z,50
2024-03-27T08:03:00.811Z,49
2024-03-27T08:06:03.076Z,49
2024-03-27T08:09:00.825Z,49
2024-03-27T08:12:02.188Z,49
2024-03-27T08:15:00.888Z,49
2024-03-27T08:18:00.864Z,49
2024-03-27T08:21:00.788Z,48
2024-03-27T08:24:00.913Z,48
2024-03-27T08:27:01.183Z,48
2024-03-27T08:30:00.879Z,48
2024-03-27T08:33:00.826Z,48
2024-03-27T08:36:03.410Z,47
2024-03-27T08:39:00.743Z,47
2024-03-27T08:42:00.996Z,47
2024-03-27T08:45:00.903Z,47
2024-03-27T08:48:01.159Z,46
2024-03-27T08:51:00.922Z,47
2024-03-27T08:54:00.710Z,47
2024-03-27T08:57:00.951Z,46
2024-03-27T09:00:03.785Z,46
2024-03-27T09:03:02.735Z,46
2024-03-27T09:06:02.136Z,46
2024-03-27T09:09:00.904Z,46
2024-03-27T09:12:00.777Z,45
2024-03-27T09:15:00.975Z,46
2024-03-27T09:18:01.242Z,46
2024-03-27T09:21:01.212Z,46
2024-03-27T09:24:00.753Z,45
2024-03-27T09:27:02.584Z,45
2024-03-27T09:30:02.700Z,45
2024-03-27T09:33:00.719Z,45
2024-03-27T09:36:03.703Z,45
2024-03-27T09:39:00.829Z,45
2024-03-27T09:42:01.254Z,45
2024-03-27T09:45:01.372Z,45
2024-03-27T09:48:01.431Z,45
2024-03-27T09:57:00.754Z,45
2024-03-27T10:00:00.867Z,45
2024-03-27T10:03:01.516Z,45
2024-03-27T10:06:01.043Z,45
2024-03-27T10:09:00.837Z,45
2024-03-27T10:12:00.849Z,44
2024-03-27T10:15:01.135Z,45
2024-03-27T10:18:00.860Z,45
2024-03-27T10:21:00.737Z,46
2024-03-27T10:24:01.060Z,46
2024-03-27T10:27:02.383Z,46
2024-03-27T10:30:01.468Z,45
2024-03-27T10:33:05.818Z,45
2024-03-27T10:36:02.341Z,44
2024-03-27T10:39:04.543Z,44
2024-03-27T10:42:00.883Z,44
2024-03-27T10:45:01.076Z,44
2024-03-27T10:48:01.224Z,43
2024-03-27T10:51:03.038Z,43
2024-03-27T10:54:01.792Z,43
2024-03-27T10:57:01.942Z,43
2024-03-27T11:00:02.414Z,43
2024-03-27T11:03:03.716Z,43
2024-03-27T11:06:00.716Z,43
2024-03-27T11:09:00.730Z,43
2024-03-27T11:12:02.713Z,42
2024-03-27T11:15:04.516Z,43
2024-03-27T11:18:00.716Z,43
2024-03-27T11:21:00.906Z,43
2024-03-27T11:24:01.220Z,43
2024-03-27T11:27:01.402Z,43
2024-03-27T11:30:00.856Z,43
2024-03-27T11:33:00.900Z,43
2024-03-27T11:36:00.856Z,43
2024-03-27T11:39:01.287Z,43
2024-03-27T11:42:00.754Z,43
2024-03-27T11:45:00.881Z,43
2024-03-27T11:48:01.694Z,43
2024-03-27T11:51:03.225Z,43
2024-03-27T11:54:01.003Z,43
2024-03-27T11:57:00.690Z,43
2024-03-27T12:00:05.054Z,43
2024-03-27T12:03:02.210Z,43
2024-03-27T12:06:00.936Z,43
2024-03-27T12:09:03.561Z,43
2024-03-27T12:12:00.858Z,43
2024-03-27T12:15:00.892Z,43
2024-03-27T12:18:03.520Z,43
2024-03-27T12:21:00.837Z,43
2024-03-27T12:24:00.967Z,43
2024-03-27T12:27:03.007Z,43
2024-03-27T12:30:01.036Z,43
2024-03-27T12:33:01.047Z,43
2024-03-27T12:36:01.872Z,42
2024-03-27T12:39:00.749Z,43
2024-03-27T12:42:00.772Z,43
2024-03-27T12:45:01.612Z,43
2024-03-27T12:48:00.852Z,42
2024-03-27T12:51:03.093Z,43
2024-03-27T12:54:00.659Z,42
2024-03-27T12:57:01.865Z,43
2024-03-27T13:00:00.786Z,42
2024-03-27T13:03:00.826Z,42
2024-03-27T13:06:00.775Z,42
2024-03-27T13:09:00.733Z,43
2024-03-27T13:12:00.703Z,42
2024-03-27T13:15:00.674Z,42
2024-03-27T13:18:00.790Z,42
2024-03-27T13:21:00.659Z,43
2024-03-27T13:24:00.750Z,43
2024-03-27T13:27:00.685Z,43
2024-03-27T13:30:01.516Z,43
2024-03-27T13:33:01.582Z,43
2024-03-27T13:36:01.207Z,43
2024-03-27T13:39:00.702Z,43
2024-03-27T13:42:01.032Z,43
2024-03-27T13:45:00.680Z,43
2024-03-27T13:48:00.697Z,43
2024-03-27T13:51:00.749Z,43
2024-03-27T13:54:00.931Z,43
2024-03-27T13:57:00.751Z,44
2024-03-27T14:00:00.855Z,44
2024-03-27T14:03:00.738Z,44
2024-03-27T14:06:00.830Z,44
2024-03-27T14:09:00.659Z,44
2024-03-27T14:12:00.659Z,44
2024-03-27T14:15:00.715Z,44
2024-03-27T14:18:00.677Z,44
2024-03-27T14:21:00.684Z,44
2024-03-27T14:24:00.669Z,44
2024-03-27T14:27:00.657Z,44
2024-03-27T14:30:00.787Z,44
2024-03-27T14:33:00.675Z,44
2024-03-27T14:36:00.702Z,44
2024-03-27T14:39:00.670Z,44
2024-03-27T14:42:00.682Z,44
2024-03-27T14:45:00.731Z,44
2024-03-27T14:48:00.644Z,44
2024-03-27T14:51:00.740Z,44
2024-03-27T14:54:00.857Z,44
2024-03-27T14:57:00.700Z,44
2024-03-27T15:00:00.848Z,44
2024-03-27T15:03:00.694Z,44
2024-03-27T15:06:00.724Z,44
2024-03-27T15:09:02.662Z,44
2024-03-27T15:12:00.658Z,44
2024-03-27T15:15:00.694Z,44
2024-03-27T15:18:00.669Z,44
2024-03-27T15:21:00.676Z,44
2024-03-27T15:24:01.417Z,44
2024-03-27T15:27:00.702Z,44
2024-03-27T15:30:00.752Z,44
2024-03-27T15:33:00.717Z,44
2024-03-27T15:36:00.717Z,44
2024-03-27T15:39:00.740Z,44
2024-03-27T15:42:00.775Z,44
2024-03-27T15:45:01.041Z,44
2024-03-27T15:48:00.691Z,44
2024-03-27T15:51:00.853Z,44
2024-03-27T15:54:00.735Z,44
2024-03-27T15:57:00.676Z,44
2024-03-27T16:00:00.751Z,44
2024-03-27T16:03:00.743Z,44
2024-03-27T16:06:02.824Z,44
2024-03-27T16:09:00.708Z,45
2024-03-27T16:12:00.733Z,45
2024-03-27T16:15:00.842Z,46
2024-03-27T16:18:00.773Z,46
2024-03-27T16:21:02.419Z,46
2024-03-27T16:24:00.721Z,47
2024-03-27T16:27:01.041Z,46
2024-03-27T16:30:00.858Z,46
2024-03-27T16:33:03.122Z,45
2024-03-27T16:36:00.678Z,45
2024-03-27T16:39:01.352Z,45
2024-03-27T16:42:00.876Z,45
2024-03-27T16:45:01.038Z,45
2024-03-27T16:48:00.688Z,45
2024-03-27T16:51:00.652Z,45
2024-03-27T16:54:00.640Z,45
2024-03-27T16:57:00.921Z,45
2024-03-27T17:00:00.788Z,45
2024-03-27T17:03:00.709Z,46
2024-03-27T17:06:00.718Z,46
2024-03-27T17:09:00.986Z,47
2024-03-27T17:12:00.718Z,47
2024-03-27T17:15:00.763Z,47
2024-03-27T17:18:01.969Z,47
2024-03-27T17:21:03.619Z,48
2024-03-27T17:24:00.674Z,48
2024-03-27T17:27:00.724Z,48
2024-03-27T17:30:00.835Z,47
2024-03-27T17:33:00.715Z,49
2024-03-27T17:36:00.674Z,49
2024-03-27T17:39:00.710Z,49
2024-03-27T17:42:00.755Z,49
2024-03-27T17:45:00.679Z,50
2024-03-27T17:48:00.966Z,50
2024-03-27T17:51:02.574Z,49
2024-03-27T17:54:00.700Z,50
2024-03-27T17:57:02.563Z,51
2024-03-27T18:00:00.853Z,51
2024-03-27T18:03:00.878Z,50
2024-03-27T18:06:01.643Z,51
2024-03-27T18:09:00.800Z,52
2024-03-27T18:12:04.003Z,51
2024-03-27T18:15:00.930Z,51
2024-03-27T18:18:00.669Z,51
2024-03-27T18:21:01.328Z,54
2024-03-27T18:24:00.881Z,52
2024-03-27T18:27:00.727Z,52
2024-03-27T18:30:00.793Z,52
2024-03-27T18:33:00.716Z,55
2024-03-27T18:36:00.737Z,53
2024-03-27T18:39:00.696Z,52
2024-03-27T18:42:01.101Z,52
2024-03-27T18:45:00.732Z,55
2024-03-27T18:48:00.673Z,53
2024-03-27T18:51:01.454Z,52
2024-03-27T18:54:00.729Z,52
2024-03-27T18:57:00.726Z,56
2024-03-27T19:00:01.074Z,53
2024-03-27T19:03:02.576Z,52
2024-03-27T19:06:00.958Z,52
2024-03-27T19:09:00.821Z,56
2024-03-27T19:12:00.699Z,53
2024-03-27T19:15:01.215Z,53
2024-03-27T19:18:00.700Z,53
2024-03-27T19:21:00.932Z,56
2024-03-27T19:24:00.883Z,54
2024-03-27T19:27:00.665Z,53
2024-03-27T19:30:00.772Z,53
2024-03-27T19:33:00.936Z,56
2024-03-27T19:36:01.686Z,53
2024-03-27T19:39:01.220Z,53
2024-03-27T19:42:00.694Z,53
2024-03-27T19:45:00.739Z,58
2024-03-27T19:48:00.689Z,58
2024-03-27T19:51:01.282Z,56
2024-03-27T19:54:00.874Z,55
2024-03-27T19:57:00.727Z,54
2024-03-27T20:00:00.694Z,53
2024-03-27T20:03:01.067Z,52
2024-03-27T20:06:01.712Z,51
2024-03-27T20:09:00.703Z,52
2024-03-27T20:12:00.696Z,51
2024-03-27T20:15:00.754Z,51
2024-03-27T20:18:00.711Z,51
2024-03-27T20:21:03.343Z,52
2024-03-27T20:24:00.706Z,51
2024-03-27T20:27:00.704Z,51
2024-03-27T20:30:03.165Z,51
2024-03-27T20:33:01.402Z,53
2024-03-27T20:36:00.761Z,51
2024-03-27T20:39:00.815Z,51
2024-03-27T20:42:00.750Z,51
2024-03-27T20:45:00.780Z,53
2024-03-27T20:48:00.635Z,52
2024-03-27T20:51:02.583Z,52
2024-03-27T20:54:00.694Z,52
2024-03-27T20:57:00.657Z,54
2024-03-27T21:00:00.758Z,52
2024-03-27T21:03:03.157Z,52
2024-03-27T21:06:00.662Z,52
2024-03-27T21:09:08.250Z,54
2024-03-27T21:12:00.701Z,53
2024-03-27T21:15:00.841Z,53
2024-03-27T21:18:00.739Z,52
2024-03-27T21:21:01.228Z,54
2024-03-27T21:24:00.680Z,53
2024-03-27T21:27:00.669Z,53
2024-03-27T21:30:01.334Z,53
2024-03-27T21:33:00.791Z,55
2024-03-27T21:36:00.708Z,54
2024-03-27T21:39:00.695Z,53
2024-03-27T21:42:00.683Z,53
2024-03-27T21:45:01.618Z,55
2024-03-27T21:48:00.677Z,54
2024-03-27T21:51:00.969Z,53
2024-03-27T21:54:00.717Z,53
2024-03-27T21:57:00.727Z,56
2024-03-27T22:00:00.772Z,54
2024-03-27T22:03:00.699Z,54
2024-03-27T22:06:00.951Z,54
2024-03-27T22:09:00.793Z,56
2024-03-27T22:12:00.711Z,55
2024-03-27T22:15:00.796Z,54
2024-03-27T22:18:00.692Z,54
2024-03-27T22:21:11.623Z,56
2024-03-27T22:24:00.688Z,55
2024-03-27T22:27:00.701Z,54
2024-03-27T22:30:00.772Z,54
2024-03-27T22:33:00.691Z,56
2024-03-27T22:36:04.924Z,55
2024-03-27T22:39:00.661Z,54
2024-03-27T22:42:00.688Z,54
2024-03-27T22:45:00.693Z,57
2024-03-27T22:48:01.654Z,55
2024-03-27T22:51:03.062Z,55
2024-03-27T22:54:00.725Z,55
2024-03-27T22:57:00.734Z,57
2024-03-27T23:00:10.003Z,55
2024-03-27T23:03:00.711Z,55
2024-03-27T23:06:00.738Z,55
2024-03-27T23:09:00.762Z,57
2024-03-27T23:12:00.808Z,56
2024-03-27T23:15:00.828Z,56
2024-03-27T23:18:00.678Z,55
2024-03-27T23:21:00.769Z,57
2024-03-27T23:24:00.751Z,56
2024-03-27T23:27:00.748Z,56
2024-03-27T23:30:01.070Z,55
2024-03-27T23:33:00.749Z,57
2024-03-27T23:36:02.501Z,56
2024-03-27T23:39:00.829Z,56
2024-03-27T23:42:00.802Z,55
2024-03-27T23:45:00.849Z,57
2024-03-27T23:48:09.363Z,56
2024-03-27T23:51:01.473Z,56
2024-03-27T23:54:00.872Z,55
2024-03-27T23:57:00.817Z,56
